createdAt,value
2017-11-14T00:01:13.321Z,59.6
2017-11-14T00:18:01.149Z,59.6
2017-11-14T00:34:49.030Z,59.6
2017-11-14T00:51:36.532Z,59.6
2017-11-14T01:08:24.204Z,59.6
2017-11-14T01:25:11.679Z,59.6
2017-11-14T01:41:59.165Z,59.6
2017-11-14T01:58:46.597Z,60.0
2017-11-14T02:15:34.095Z,60.0
2017-11-14T02:32:21.425Z,60.0
2017-11-14T02:49:08.711Z,60.0
2017-11-14T03:05:55.997Z,60.0
2017-11-14T03:22:43.253Z,60.0
2017-11-14T03:39:30.388Z,60.0
2017-11-14T03:56:17.585Z,60.0
2017-11-14T04:13:04.706Z,60.0
2017-11-14T04:29:51.648Z,60.4
2017-11-14T04:46:38.656Z,60.4
2017-11-14T05:03:25.639Z,59.6
2017-11-14T05:20:12.659Z,59.6
2017-11-14T05:36:59.533Z,59.6
2017-11-14T05:53:46.539Z,59.6
2017-11-14T06:10:33.574Z,59.6
2017-11-14T06:27:20.635Z,59.6
2017-11-14T06:44:07.812Z,60.0
2017-11-14T07:00:54.947Z,60.0
2017-11-14T07:17:42.052Z,59.2
2017-11-14T07:34:29.558Z,58.4
2017-11-14T07:51:16.055Z,58.0
2017-11-14T08:08:03.090Z,58.0
2017-11-14T08:24:50.075Z,57.6
2017-11-14T08:41:37.105Z,57.6
2017-11-14T08:58:23.830Z,57.6
2017-11-14T09:15:10.742Z,57.6
2017-11-14T09:31:57.752Z,57.6
2017-11-14T09:48:44.784Z,57.6
2017-11-14T10:05:32.071Z,57.6
2017-11-14T10:22:18.888Z,57.2
2017-11-14T10:39:06.794Z,57.2
2017-11-14T10:55:54.545Z,57.2
2017-11-14T11:12:42.468Z,57.2
2017-11-14T11:29:30.257Z,57.2
2017-11-14T11:46:18.068Z,57.6
2017-11-14T12:03:06.131Z,56.8
2017-11-14T12:19:54.173Z,57.6
2017-11-14T12:36:42.265Z,57.6
2017-11-14T12:53:30.440Z,57.2
2017-11-14T13:10:18.495Z,57.2
2017-11-14T13:27:06.677Z,58.0
2017-11-14T13:43:54.837Z,58.0
2017-11-14T14:00:43.056Z,58.0
2017-11-14T14:17:31.241Z,58.0
2017-11-14T14:34:19.532Z,58.0
2017-11-14T14:51:07.940Z,58.0
2017-11-14T15:07:56.262Z,58.4
2017-11-14T15:24:44.761Z,58.4
2017-11-14T15:41:33.227Z,58.4
2017-11-14T15:58:21.763Z,58.8
2017-11-14T16:15:10.320Z,58.8
2017-11-14T16:31:58.519Z,58.8
2017-11-14T16:45:24.641Z,60.8
2017-11-14T17:02:12.431Z,60.8
2017-11-14T17:19:00.269Z,61.2
2017-11-14T17:35:48.046Z,61.2
2017-11-14T17:52:36.062Z,60.8
2017-11-14T18:09:24.000Z,61.6
2017-11-14T18:26:12.035Z,62.0
2017-11-14T18:43:00.176Z,62.4
2017-11-14T18:59:48.435Z,62.8
2017-11-14T19:16:36.415Z,62.8
2017-11-14T19:33:24.224Z,62.8
2017-11-14T19:50:12.268Z,62.8
2017-11-14T20:07:00.667Z,62.8
2017-11-14T20:23:48.617Z,62.8
2017-11-14T20:40:36.669Z,62.8
2017-11-14T20:57:25.826Z,62.8
2017-11-14T21:14:12.944Z,62.8
2017-11-14T21:31:01.153Z,62.8
2017-11-14T21:47:49.326Z,62.8
2017-11-14T22:04:37.626Z,62.8
2017-11-14T22:21:25.905Z,62.8
2017-11-14T22:38:14.329Z,62.8
2017-11-14T22:55:02.826Z,62.4
2017-11-14T23:11:51.378Z,62.4
2017-11-14T23:28:39.633Z,62.4
2017-11-14T23:45:28.215Z,62.4
